Time;durP1;ratioP1;P1;durP2;ratioP2;P2;SDS_P1;SDS_P2;PMS_P1;PMS_P2;Temp;Humidity;BMP_temperature;BMP_pressure;BME280_temperature;BME280_humidity;BME280_pressure;Samples;Min_cycle;Max_cycle;Signal;HPM_P1;HPM_P2
2023/05/28 00:01:55;;;;;;;8.57;4.03;;;15.40;99.90;;;;;;5071293;28;20339;-51
2023/05/28 00:04:21;;;;;;;7.70;4.68;;;15.50;99.90;;;;;;5071622;28;20684;-50
2023/05/28 00:06:48;;;;;;;8.07;4.85;;;15.60;99.90;;;;;;5071262;28;20275;-51
2023/05/28 00:09:14;;;;;;;9.73;4.55;;;15.30;99.90;;;;;;5070911;28;20165;-50
2023/05/28 00:11:40;;;;;;;7.45;4.57;;;15.20;99.90;;;;;;5071083;28;20162;-50
2023/05/28 00:14:06;;;;;;;9.98;4.95;;;15.20;99.90;;;;;;5069830;28;20174;-51
2023/05/28 00:16:35;;;;;;;7.47;4.18;;;;;;;;;;5071159;28;20537;-50
2023/05/28 00:19:01;;;;;;;8.85;4.65;;;15.30;99.90;;;;;;5071243;28;20178;-50
2023/05/28 00:21:27;;;;;;;9.75;4.40;;;15.20;99.90;;;;;;5070861;28;20241;-50
2023/05/28 00:23:53;;;;;;;6.78;4.35;;;15.20;99.90;;;;;;5070919;28;20201;-50
2023/05/28 00:26:18;;;;;;;9.65;4.45;;;15.20;99.90;;;;;;5071358;28;20171;-50
2023/05/28 00:28:44;;;;;;;8.35;4.57;;;15.10;99.90;;;;;;5070897;28;20165;-51
2023/05/28 00:31:10;;;;;;;11.27;4.82;;;15.00;99.90;;;;;;5070878;28;20615;-50
2023/05/28 00:33:36;;;;;;;7.13;4.22;;;15.40;99.90;;;;;;5070856;28;20732;-50
2023/05/28 00:36:01;;;;;;;9.27;4.75;;;15.00;99.90;;;;;;5070969;28;20197;-50
2023/05/28 00:38:27;;;;;;;7.30;4.47;;;15.20;99.90;;;;;;5070898;28;20173;-50
2023/05/28 00:40:54;;;;;;;9.82;4.57;;;14.70;99.90;;;;;;5070796;28;20239;-51
2023/05/28 00:43:20;;;;;;;9.85;4.22;;;14.90;99.90;;;;;;5071220;28;20635;-50
2023/05/28 00:45:50;;;;;;;9.20;3.92;;;14.90;99.90;;;;;;5071213;28;20170;-50
2023/05/28 00:48:16;;;;;;;7.25;4.13;;;14.70;99.90;;;;;;5074342;28;20189;-50
2023/05/28 00:50:43;;;;;;;8.73;4.47;;;14.80;99.90;;;;;;5074440;28;20161;-51
2023/05/28 00:53:10;;;;;;;6.70;4.20;;;14.90;99.90;;;;;;5074598;28;20235;-51
2023/05/28 00:55:36;;;;;;;8.32;4.53;;;14.60;99.90;;;;;;5074331;28;20173;-50
2023/05/28 00:58:05;;;;;;;8.93;4.85;;;14.70;99.90;;;;;;5074390;28;20158;-51
2023/05/28 01:00:35;;;;;;;11.43;5.18;;;14.70;99.90;;;;;;5074441;28;20217;-51
2023/05/28 01:03:01;;;;;;;8.85;5.55;;;14.70;99.90;;;;;;5074226;28;20159;-51
2023/05/28 01:05:26;;;;;;;10.38;5.15;;;14.70;99.90;;;;;;5074072;28;20174;-51
2023/05/28 01:07:52;;;;;;;9.68;4.68;;;;;;;;;;5072646;28;20221;-51
2023/05/28 01:10:18;;;;;;;6.70;3.88;;;14.50;99.90;;;;;;5074465;28;20166;-51
2023/05/28 01:12:44;;;;;;;6.15;4.47;;;;;;;;;;5073906;28;20650;-51
2023/05/28 01:15:10;;;;;;;6.60;4.00;;;14.50;99.90;;;;;;5074233;28;20283;-51
2023/05/28 01:17:38;;;;;;;7.22;4.80;;;14.50;99.90;;;;;;5074210;28;20170;-51
2023/05/28 01:20:10;;;;;;;7.28;3.88;;;14.40;99.90;;;;;;5073744;28;20200;-51
2023/05/28 01:22:53;;;;;;;6.75;4.32;;;14.30;99.90;;;;;;5073815;28;20173;-51
2023/05/28 01:25:19;;;;;;;6.90;3.83;;;14.00;99.90;;;;;;5074297;28;20181;-51
2023/05/28 01:27:45;;;;;;;5.50;3.65;;;13.80;99.90;;;;;;5073629;28;20644;-51
2023/05/28 01:30:11;;;;;;;7.30;3.97;;;;;;;;;;5073582;28;20169;-51
2023/05/28 01:32:38;;;;;;;8.32;4.65;;;14.00;99.90;;;;;;5073828;28;20260;-51
2023/05/28 01:35:05;;;;;;;5.30;4.20;;;14.00;99.90;;;;;;5073521;28;20170;-51
2023/05/28 01:37:47;;;;;;;9.75;4.43;;;13.90;99.90;;;;;;5073745;28;20570;-51
2023/05/28 01:40:16;;;;;;;5.18;3.97;;;13.90;99.90;;;;;;5073398;28;20732;-51
2023/05/28 01:42:42;;;;;;;7.45;4.28;;;14.00;99.90;;;;;;5073514;28;21152;-51
2023/05/28 01:45:10;;;;;;;6.70;4.07;;;13.80;99.90;;;;;;5073378;28;20186;-51
2023/05/28 01:47:36;;;;;;;7.93;4.35;;;13.80;99.90;;;;;;5073547;28;20170;-51
2023/05/28 01:50:03;;;;;;;8.63;4.50;;;13.90;99.90;;;;;;5073513;28;20502;-51
2023/05/28 01:52:28;;;;;;;11.98;4.70;;;13.80;99.90;;;;;;5073244;28;20169;-51
2023/05/28 01:54:54;;;;;;;7.68;4.57;;;13.60;99.90;;;;;;5073137;28;20174;-50
2023/05/28 01:57:19;;;;;;;8.57;4.60;;;13.60;99.90;;;;;;5072883;28;20675;-51
2023/05/28 01:59:45;;;;;;;7.78;4.90;;;13.70;99.90;;;;;;5072593;28;20170;-51
2023/05/28 02:02:10;;;;;;;6.63;4.20;;;13.70;99.90;;;;;;5073229;28;20213;-51
2023/05/28 02:04:36;;;;;;;8.75;4.85;;;13.60;99.90;;;;;;5073160;28;20165;-50
2023/05/28 02:07:01;;;;;;;9.30;4.82;;;13.80;99.90;;;;;;5072897;28;20217;-51
2023/05/28 02:09:27;;;;;;;7.15;4.60;;;13.90;99.90;;;;;;5072895;28;20169;-51
2023/05/28 02:11:53;;;;;;;9.80;4.53;;;;;;;;;;5072792;28;20162;-51
2023/05/28 02:14:19;;;;;;;8.23;5.07;;;13.70;99.90;;;;;;5073374;28;20162;-51
2023/05/28 02:16:48;;;;;;;6.90;4.28;;;13.50;99.90;;;;;;5072753;28;20291;-51
2023/05/28 02:19:14;;;;;;;8.23;4.13;;;13.50;99.90;;;;;;5072650;28;20240;-51
2023/05/28 02:21:40;;;;;;;8.70;4.40;;;13.70;99.90;;;;;;5072601;28;20556;-51
2023/05/28 02:24:06;;;;;;;9.18;4.82;;;13.70;99.90;;;;;;5072778;28;20170;-51
2023/05/28 02:26:32;;;;;;;7.93;4.82;;;13.70;99.90;;;;;;5072493;28;20635;-50
2023/05/28 02:28:58;;;;;;;8.10;5.30;;;13.70;99.90;;;;;;5072458;28;20216;-50
2023/05/28 02:31:23;;;;;;;11.40;5.70;;;13.40;99.90;;;;;;5072629;28;20170;-50
2023/05/28 02:33:49;;;;;;;7.80;4.55;;;;;;;;;;5072836;28;20169;-50
2023/05/28 02:36:15;;;;;;;13.57;5.25;;;13.40;99.90;;;;;;5072401;28;20166;-50
2023/05/28 02:38:41;;;;;;;6.45;4.43;;;13.30;99.90;;;;;;5072440;28;20639;-50
2023/05/28 02:41:07;;;;;;;10.82;4.93;;;13.20;99.90;;;;;;5072168;28;20206;-50
2023/05/28 02:43:33;;;;;;;5.53;4.22;;;13.20;99.90;;;;;;5072145;28;20285;-50
2023/05/28 02:45:58;;;;;;;7.72;5.03;;;12.80;99.90;;;;;;5072138;28;20249;-50
2023/05/28 02:48:24;;;;;;;8.10;4.22;;;12.60;99.90;;;;;;5072060;28;20169;-50
2023/05/28 02:50:50;;;;;;;7.90;4.80;;;12.80;99.90;;;;;;5072432;28;20162;-50
2023/05/28 02:53:21;;;;;;;10.38;4.57;;;;;;;;;;5072002;28;20162;-51
2023/05/28 02:55:47;;;;;;;7.03;4.55;;;13.00;99.90;;;;;;5072378;28;20173;-51
2023/05/28 02:58:13;;;;;;;7.10;4.80;;;13.20;99.90;;;;;;5072000;28;20602;-51
2023/05/28 03:00:40;;;;;;;9.38;4.93;;;13.10;99.90;;;;;;5071767;28;20198;-51
2023/05/28 03:03:06;;;;;;;8.50;4.97;;;13.00;99.90;;;;;;5071884;28;20193;-50
2023/05/28 03:05:32;;;;;;;10.77;4.57;;;13.20;99.90;;;;;;5071817;28;20166;-51
2023/05/28 03:07:58;;;;;;;10.57;5.22;;;13.20;99.90;;;;;;5071631;28;20271;-50
2023/05/28 03:10:24;;;;;;;10.50;5.22;;;12.90;99.90;;;;;;5071651;28;20531;-51
2023/05/28 03:12:49;;;;;;;10.18;5.05;;;13.30;99.90;;;;;;5070803;28;20158;-50
2023/05/28 03:15:15;;;;;;;8.20;5.13;;;13.20;99.90;;;;;;5071751;28;20635;-51
2023/05/28 03:17:41;;;;;;;11.75;4.63;;;13.20;99.90;;;;;;5071572;28;20596;-51
2023/05/28 03:20:10;;;;;;;9.00;4.70;;;12.90;99.90;;;;;;5071565;28;20201;-51
2023/05/28 03:22:39;;;;;;;10.05;4.78;;;13.10;99.90;;;;;;5071564;28;20176;-50
2023/05/28 03:25:05;;;;;;;9.75;5.95;;;13.10;99.90;;;;;;5071591;28;20170;-51
2023/05/28 03:27:32;;;;;;;8.10;4.30;;;13.00;99.90;;;;;;5071612;28;20174;-50
2023/05/28 03:29:58;;;;;;;9.23;4.20;;;12.90;99.90;;;;;;5071680;28;20165;-50
2023/05/28 03:32:24;;;;;;;8.65;4.65;;;;;;;;;;5071356;28;20162;-50
2023/05/28 03:34:50;;;;;;;11.25;4.68;;;13.30;99.90;;;;;;5072041;28;20166;-51
2023/05/28 03:37:16;;;;;;;10.32;4.00;;;;;;;;;;5071396;28;20245;-51
2023/05/28 03:39:41;;;;;;;10.32;4.60;;;12.80;99.90;;;;;;5071618;28;20166;-51
2023/05/28 03:42:07;;;;;;;8.25;4.20;;;;;;;;;;5070827;28;20197;-50
2023/05/28 03:44:34;;;;;;;5.72;4.38;;;12.80;99.90;;;;;;5071250;28;20162;-51
2023/05/28 03:47:00;;;;;;;6.25;3.92;;;12.90;99.90;;;;;;5071526;28;20231;-51
2023/05/28 03:49:26;;;;;;;11.52;4.95;;;13.00;99.90;;;;;;5071557;28;20170;-50
2023/05/28 03:51:51;;;;;;;7.43;4.35;;;12.90;99.90;;;;;;5071248;28;20166;-50
2023/05/28 03:54:17;;;;;;;11.50;4.32;;;12.90;99.90;;;;;;5071703;28;20582;-52
2023/05/28 03:56:43;;;;;;;7.68;3.97;;;12.90;99.90;;;;;;5071278;28;20256;-51
2023/05/28 03:59:08;;;;;;;7.35;4.50;;;12.60;99.90;;;;;;5071232;28;20166;-50
2023/05/28 04:01:35;;;;;;;7.40;3.90;;;12.90;99.90;;;;;;5071123;28;20575;-50
2023/05/28 04:04:02;;;;;;;5.38;4.40;;;13.00;99.90;;;;;;5071201;28;20271;-51
2023/05/28 04:06:27;;;;;;;7.15;4.40;;;12.90;99.90;;;;;;5071225;28;20259;-51
2023/05/28 04:08:53;;;;;;;6.85;4.50;;;12.50;99.90;;;;;;5071164;28;20647;-51
2023/05/28 04:11:18;;;;;;;10.43;4.75;;;12.90;99.90;;;;;;5071570;28;20654;-50
2023/05/28 04:13:44;;;;;;;6.57;4.00;;;12.90;99.90;;;;;;5071158;28;20645;-50
2023/05/28 04:16:10;;;;;;;8.95;4.82;;;13.10;99.90;;;;;;5071124;28;20162;-51
2023/05/28 04:18:35;;;;;;;7.57;4.43;;;13.00;99.90;;;;;;5071077;28;20159;-51
2023/05/28 04:21:01;;;;;;;13.63;5.43;;;13.00;99.90;;;;;;5071580;28;20666;-51
2023/05/28 04:23:26;;;;;;;8.77;4.30;;;13.10;99.90;;;;;;5074951;28;20619;-50
2023/05/28 04:25:53;;;;;;;14.07;4.93;;;13.10;99.90;;;;;;5074906;28;20227;-51
2023/05/28 04:28:19;;;;;;;8.32;5.32;;;13.10;99.90;;;;;;5075530;28;20174;-50
2023/05/28 04:30:45;;;;;;;8.43;6.18;;;13.30;99.90;;;;;;5074681;28;20240;-51
2023/05/28 04:33:10;;;;;;;8.70;5.32;;;13.70;99.90;;;;;;5074731;28;20158;-50
2023/05/28 04:35:36;;;;;;;9.32;5.65;;;13.50;99.90;;;;;;5074706;28;20185;-50
2023/05/28 04:38:02;;;;;;;10.35;5.85;;;13.50;99.90;;;;;;5074645;28;20162;-50
2023/05/28 04:40:27;;;;;;;8.80;5.47;;;13.60;99.90;;;;;;5074423;28;20206;-50
2023/05/28 04:42:55;;;;;;;8.73;5.57;;;13.70;99.90;;;;;;5074570;28;20166;-51
2023/05/28 04:45:21;;;;;;;11.80;5.63;;;;;;;;;;5074879;28;20641;-51
2023/05/28 04:47:48;;;;;;;12.93;4.90;;;13.90;99.90;;;;;;5075127;28;20170;-51
2023/05/28 04:50:13;;;;;;;9.88;5.38;;;13.90;99.90;;;;;;5074387;28;20192;-51
2023/05/28 04:52:39;;;;;;;8.88;6.18;;;;;;;;;;5074391;28;20216;-51
2023/05/28 04:55:05;;;;;;;10.13;5.50;;;13.80;99.90;;;;;;5074352;28;20166;-51
2023/05/28 04:57:32;;;;;;;8.57;5.50;;;13.90;99.90;;;;;;5074541;28;20177;-51
2023/05/28 04:59:58;;;;;;;11.02;6.00;;;;;;;;;;5074167;28;20659;-51
2023/05/28 05:02:24;;;;;;;14.50;6.25;;;14.00;99.90;;;;;;5074206;28;20243;-51
2023/05/28 05:04:49;;;;;;;8.23;5.95;;;13.90;99.90;;;;;;5074533;28;20166;-51
2023/05/28 05:07:16;;;;;;;11.02;5.75;;;14.50;99.90;;;;;;5073963;28;20780;-51
2023/05/28 05:09:42;;;;;;;8.90;5.95;;;14.60;99.90;;;;;;5074124;28;20162;-51
2023/05/28 05:12:08;;;;;;;10.60;6.53;;;14.90;99.90;;;;;;5073985;28;20166;-51
2023/05/28 05:14:34;;;;;;;15.07;8.80;;;15.00;99.90;;;;;;5073953;28;20253;-51
2023/05/28 05:17:00;;;;;;;9.23;6.18;;;15.00;99.90;;;;;;5073951;28;20177;-51
2023/05/28 05:19:26;;;;;;;9.77;6.68;;;15.20;99.90;;;;;;5073948;28;20162;-51
2023/05/28 05:21:52;;;;;;;10.07;6.53;;;15.00;99.90;;;;;;5073739;28;20206;-50
2023/05/28 05:24:17;;;;;;;8.10;5.50;;;15.20;99.90;;;;;;5074145;28;20223;-51
2023/05/28 05:26:43;;;;;;;8.88;6.40;;;15.30;99.90;;;;;;5072752;28;20197;-50
2023/05/28 05:29:09;;;;;;;10.85;7.15;;;15.40;99.90;;;;;;5072255;28;20223;-50
2023/05/28 05:31:37;;;;;;;12.85;6.68;;;15.50;99.90;;;;;;5073260;28;20216;-51
2023/05/28 05:34:04;;;;;;;14.05;7.88;;;;;;;;;;5073260;28;20174;-51
2023/05/28 05:36:30;;;;;;;12.05;6.82;;;15.70;99.90;;;;;;5073423;28;20162;-51
2023/05/28 05:38:56;;;;;;;9.70;6.63;;;;;;;;;;5073843;28;20192;-50
2023/05/28 05:41:22;;;;;;;13.77;7.30;;;15.70;99.90;;;;;;5073380;28;20201;-51
2023/05/28 05:43:48;;;;;;;13.15;7.00;;;15.80;99.90;;;;;;5073871;28;20208;-51
2023/05/28 05:46:13;;;;;;;12.18;7.10;;;16.00;99.90;;;;;;5073349;28;20249;-51
2023/05/28 05:48:39;;;;;;;12.77;7.03;;;16.20;99.90;;;;;;5073706;28;20194;-50
2023/05/28 05:51:06;;;;;;;16.67;8.25;;;16.00;99.90;;;;;;5073633;28;20631;-50
2023/05/28 05:53:31;;;;;;;10.95;7.45;;;16.00;99.90;;;;;;5073260;28;20532;-51
2023/05/28 05:55:57;;;;;;;14.48;8.68;;;16.20;99.90;;;;;;5073225;28;20185;-50
2023/05/28 05:58:22;;;;;;;13.82;7.47;;;16.10;99.90;;;;;;5073090;28;20166;-51
2023/05/28 06:00:48;;;;;;;11.13;7.50;;;16.20;99.90;;;;;;5073511;28;20198;-51
2023/05/28 06:03:14;;;;;;;16.42;8.82;;;16.20;99.90;;;;;;5073077;28;20249;-50
2023/05/28 06:05:40;;;;;;;14.20;6.93;;;16.10;99.90;;;;;;5072615;28;20170;-51
2023/05/28 06:08:05;;;;;;;13.00;6.70;;;16.10;99.90;;;;;;5072704;28;20707;-51
2023/05/28 06:10:31;;;;;;;10.77;7.05;;;16.50;99.90;;;;;;5072641;28;20181;-51
2023/05/28 06:13:00;;;;;;;13.95;7.40;;;16.50;99.90;;;;;;5072856;28;20173;-51
2023/05/28 06:15:26;;;;;;;10.82;6.93;;;16.50;99.90;;;;;;5072727;28;20548;-51
2023/05/28 06:17:51;;;;;;;13.48;7.03;;;16.30;99.90;;;;;;5072782;28;20166;-52
2023/05/28 06:20:19;;;;;;;13.23;7.13;;;16.50;99.90;;;;;;5073223;28;20733;-51
2023/05/28 06:22:45;;;;;;;13.95;6.63;;;16.50;99.90;;;;;;5072903;28;20174;-51
2023/05/28 06:25:11;;;;;;;19.00;9.73;;;16.50;99.90;;;;;;5072807;28;20193;-51
2023/05/28 06:27:37;;;;;;;12.40;6.72;;;16.70;99.90;;;;;;5072820;28;20178;-51
2023/05/28 06:30:04;;;;;;;9.63;6.78;;;;;;;;;;5072551;28;20692;-52
2023/05/28 06:32:31;;;;;;;12.60;7.13;;;;;;;;;;5072798;28;20185;-51
2023/05/28 06:34:57;;;;;;;25.95;12.55;;;16.80;99.90;;;;;;5072365;28;20654;-52
2023/05/28 06:37:22;;;;;;;11.13;6.75;;;16.80;99.90;;;;;;5072561;28;20166;-51
2023/05/28 06:39:48;;;;;;;10.60;6.20;;;17.10;99.90;;;;;;5072582;28;20623;-51
2023/05/28 06:42:13;;;;;;;13.25;5.82;;;17.00;99.90;;;;;;5072273;28;20178;-51
2023/05/28 06:44:39;;;;;;;9.65;6.05;;;17.50;99.90;;;;;;5071704;28;20158;-51
2023/05/28 06:47:05;;;;;;;10.48;6.10;;;;;;;;;;5072405;28;20170;-51
2023/05/28 06:49:31;;;;;;;11.80;5.70;;;17.60;99.90;;;;;;5072162;28;20242;-51
2023/05/28 06:51:56;;;;;;;13.68;6.90;;;17.80;99.90;;;;;;5072160;28;20260;-51
2023/05/28 06:54:22;;;;;;;10.63;5.47;;;18.10;99.90;;;;;;5072214;28;20224;-51
2023/05/28 06:56:47;;;;;;;8.35;5.03;;;17.90;99.90;;;;;;5072299;28;20568;-51
2023/05/28 06:59:14;;;;;;;12.32;5.32;;;;;;;;;;5071882;28;20619;-51
2023/05/28 07:01:39;;;;;;;12.48;5.80;;;18.00;99.90;;;;;;5060596;28;20206;-52
2023/05/28 07:04:05;;;;;;;10.02;6.03;;;;;;;;;;5065831;28;20528;-51
2023/05/28 07:06:32;;;;;;;10.23;5.35;;;18.60;99.90;;;;;;5069803;28;20222;-51
2023/05/28 07:08:58;;;;;;;8.73;5.35;;;18.40;99.90;;;;;;5072036;28;20182;-51
2023/05/28 07:11:23;;;;;;;8.55;5.10;;;18.50;99.90;;;;;;5071858;28;20172;-51
2023/05/28 07:13:49;;;;;;;7.32;5.00;;;18.70;99.90;;;;;;5071806;28;20536;-51
2023/05/28 07:16:14;;;;;;;8.80;5.00;;;18.70;99.90;;;;;;5071404;28;20178;-51
2023/05/28 07:18:40;;;;;;;8.43;5.22;;;;;;;;;;5071504;28;20615;-51
2023/05/28 07:21:06;;;;;;;11.65;5.50;;;18.80;99.90;;;;;;5071809;28;20205;-52
2023/05/28 07:23:32;;;;;;;9.68;4.57;;;18.80;99.90;;;;;;5071868;28;20573;-52
2023/05/28 07:25:58;;;;;;;9.27;5.78;;;19.10;99.90;;;;;;5071571;28;20591;-52
2023/05/28 07:28:23;;;;;;;10.02;5.53;;;19.10;99.90;;;;;;5071824;28;20174;-51
2023/05/28 07:30:49;;;;;;;12.23;6.55;;;;;;;;;;5071851;28;20170;-52
2023/05/28 07:33:15;;;;;;;12.98;5.70;;;19.30;99.90;;;;;;5071836;28;20170;-51
2023/05/28 07:35:41;;;;;;;13.18;6.20;;;19.40;99.90;;;;;;5071432;28;20169;-52
2023/05/28 07:38:10;;;;;;;10.15;5.57;;;;;;;;;;5069566;28;20192;-51
2023/05/28 07:40:36;;;;;;;11.77;6.90;;;;;;;;;;5069526;28;20208;-51
2023/05/28 07:43:02;;;;;;;8.20;5.65;;;19.60;99.90;;;;;;5069558;28;20170;-51
2023/05/28 07:45:28;;;;;;;10.00;5.78;;;19.50;99.90;;;;;;5071372;28;20208;-51
2023/05/28 07:47:54;;;;;;;10.45;5.13;;;;;;;;;;5071405;28;20219;-52
2023/05/28 07:50:20;;;;;;;10.98;5.43;;;;;;;;;;5071686;28;20166;-52
2023/05/28 07:52:45;;;;;;;11.63;5.18;;;19.90;99.90;;;;;;5071672;28;20172;-51
2023/05/28 07:55:11;;;;;;;12.93;4.97;;;20.10;99.90;;;;;;5071636;28;20170;-51
2023/05/28 07:57:37;;;;;;;10.05;4.50;;;;;;;;;;5073410;28;20173;-52
2023/05/28 08:00:06;;;;;;;7.28;4.13;;;20.20;99.90;;;;;;5075491;28;20193;-53
2023/05/28 08:02:34;;;;;;;7.78;4.28;;;20.10;99.90;;;;;;5075452;28;20203;-53
2023/05/28 08:05:00;;;;;;;6.45;3.55;;;20.30;99.90;;;;;;5075343;28;20193;-53
2023/05/28 08:07:29;;;;;;;7.80;4.18;;;;;;;;;;5075114;28;20217;-52
2023/05/28 08:09:55;;;;;;;7.57;3.55;;;20.80;99.90;;;;;;5075125;28;20158;-51
2023/05/28 08:12:21;;;;;;;9.43;4.13;;;20.80;99.90;;;;;;5075414;28;20223;-51
2023/05/28 08:14:46;;;;;;;7.47;3.90;;;21.00;99.90;;;;;;5075772;28;20542;-51
2023/05/28 08:17:12;;;;;;;11.07;3.92;;;20.90;99.90;;;;;;5075058;28;20249;-51
2023/05/28 08:19:40;;;;;;;9.82;3.95;;;21.10;99.90;;;;;;5074999;28;20174;-53
2023/05/28 08:22:06;;;;;;;9.48;4.18;;;21.10;99.90;;;;;;5074888;28;20568;-52
2023/05/28 08:24:32;;;;;;;10.38;4.25;;;21.30;99.90;;;;;;5075101;28;20177;-52
2023/05/28 08:26:57;;;;;;;10.00;4.30;;;21.10;99.90;;;;;;5074805;28;20631;-52
2023/05/28 08:29:23;;;;;;;11.63;4.25;;;21.20;99.90;;;;;;5074695;28;20623;-50
2023/05/28 08:31:48;;;;;;;6.35;4.13;;;21.10;99.90;;;;;;5075023;28;20193;-52
2023/05/28 08:34:14;;;;;;;10.18;4.05;;;21.50;99.90;;;;;;5074802;28;20166;-50
2023/05/28 08:36:40;;;;;;;6.60;4.25;;;;;;;;;;5074701;28;20170;-50
2023/05/28 08:39:08;;;;;;;7.60;4.22;;;21.40;99.90;;;;;;5073352;28;20170;-51
2023/05/28 08:41:34;;;;;;;9.55;4.22;;;21.70;99.90;;;;;;5074677;28;20205;-50
2023/05/28 08:43:59;;;;;;;9.18;4.40;;;21.80;99.90;;;;;;5074616;28;20554;-51
2023/05/28 08:46:25;;;;;;;6.90;3.97;;;21.90;99.90;;;;;;5074442;28;20173;-50
2023/05/28 08:48:51;;;;;;;5.90;3.70;;;;;;;;;;5074114;28;20253;-50
2023/05/28 08:51:19;;;;;;;10.60;4.28;;;;;;;;;;5074629;28;20197;-50
2023/05/28 08:53:49;;;;;;;8.20;4.45;;;22.00;99.90;;;;;;5073547;28;20211;-50
2023/05/28 08:56:15;;;;;;;9.48;4.00;;;22.00;99.90;;;;;;5074726;28;20162;-50
2023/05/28 08:58:40;;;;;;;6.40;4.00;;;22.20;99.90;;;;;;5074012;28;20174;-50
2023/05/28 09:01:07;;;;;;;5.82;4.15;;;22.20;99.90;;;;;;5074143;28;20206;-50
2023/05/28 09:03:33;;;;;;;6.68;3.70;;;22.10;99.90;;;;;;5074153;28;20158;-50
2023/05/28 09:05:59;;;;;;;12.63;4.78;;;22.20;99.90;;;;;;5073906;28;20173;-50
2023/05/28 09:08:28;;;;;;;11.02;4.10;;;22.30;99.30;;;;;;5073543;28;20170;-50
2023/05/28 09:10:56;;;;;;;5.88;3.92;;;22.50;98.80;;;;;;5073966;28;20646;-50
2023/05/28 09:13:22;;;;;;;8.82;4.00;;;;;;;;;;5074057;28;20709;-51
2023/05/28 09:15:51;;;;;;;8.13;4.40;;;22.70;99.10;;;;;;5074273;28;20183;-51
2023/05/28 09:18:21;;;;;;;8.35;4.15;;;22.80;97.50;;;;;;5074524;28;20189;-50
2023/05/28 09:20:49;;;;;;;7.00;3.40;;;22.50;98.00;;;;;;5074152;28;20204;-50
2023/05/28 09:23:20;;;;;;;7.32;3.65;;;22.80;96.90;;;;;;5074169;28;20170;-50
2023/05/28 09:25:45;;;;;;;6.07;3.42;;;23.00;96.70;;;;;;5073179;28;20209;-50
2023/05/28 09:28:13;;;;;;;7.35;3.83;;;23.10;94.70;;;;;;5073687;28;20197;-50
2023/05/28 09:30:39;;;;;;;14.40;4.40;;;;;;;;;;5073704;28;20174;-50
2023/05/28 09:33:07;;;;;;;6.38;3.38;;;23.30;92.90;;;;;;5073752;28;20185;-50
2023/05/28 09:35:33;;;;;;;6.07;3.88;;;;;;;;;;5073626;28;20253;-50
2023/05/28 09:38:03;;;;;;;5.40;3.30;;;23.10;93.10;;;;;;5073452;28;20170;-51
2023/05/28 09:40:29;;;;;;;6.03;4.50;;;23.00;92.70;;;;;;5072878;28;20217;-52
2023/05/28 09:42:55;;;;;;;8.63;4.85;;;;;;;;;;5073168;28;20167;-52
2023/05/28 09:45:25;;;;;;;7.30;3.65;;;23.30;92.70;;;;;;5073212;28;20177;-49
2023/05/28 09:47:51;;;;;;;6.03;3.30;;;23.40;92.20;;;;;;5073684;28;20174;-50
2023/05/28 09:50:17;;;;;;;7.18;3.55;;;23.50;90.70;;;;;;5073394;28;20519;-49
2023/05/28 09:52:47;;;;;;;6.38;3.83;;;23.20;90.00;;;;;;5071627;28;20173;-49
2023/05/28 09:55:20;;;;;;;8.18;3.67;;;23.30;89.20;;;;;;5072613;28;20173;-50
2023/05/28 09:57:52;;;;;;;6.68;3.95;;;23.60;87.90;;;;;;5073411;28;20176;-49
2023/05/28 10:00:22;;;;;;;7.25;3.97;;;;;;;;;;5072953;28;20795;-49
2023/05/28 10:03:12;;;;;;;11.45;4.18;;;23.90;89.80;;;;;;5073471;28;20194;-50
2023/05/28 10:05:42;;;;;;;8.38;4.10;;;24.00;90.50;;;;;;5072580;28;20162;-50
2023/05/28 10:08:11;;;;;;;7.72;4.40;;;23.90;89.30;;;;;;5072832;28;20233;-50
2023/05/28 10:10:39;;;;;;;8.25;4.00;;;23.60;87.00;;;;;;5072894;28;20170;-50
2023/05/28 10:13:07;;;;;;;5.35;3.55;;;23.60;82.30;;;;;;5073185;28;20166;-50
2023/05/28 10:15:34;;;;;;;5.90;3.55;;;24.00;85.80;;;;;;5072844;28;20212;-50
2023/05/28 10:18:00;;;;;;;7.65;3.63;;;24.20;88.20;;;;;;5072761;28;20639;-50
2023/05/28 10:20:26;;;;;;;6.80;4.22;;;;;;;;;;5072176;28;20217;-50
2023/05/28 10:22:52;;;;;;;8.27;4.30;;;24.10;85.30;;;;;;5072875;28;20201;-49
2023/05/28 10:25:17;;;;;;;12.82;7.28;;;24.20;86.10;;;;;;5073138;28;20674;-50
2023/05/28 10:27:45;;;;;;;6.40;3.67;;;24.20;86.10;;;;;;5071738;28;20252;-49
2023/05/28 10:30:12;;;;;;;6.95;3.83;;;24.30;84.80;;;;;;5071980;28;20627;-50
2023/05/28 10:32:42;;;;;;;5.25;3.53;;;24.50;83.80;;;;;;5072274;28;20208;-50
2023/05/28 10:35:10;;;;;;;7.32;3.60;;;24.70;84.90;;;;;;5072094;28;20166;-50
2023/05/28 10:37:36;;;;;;;8.20;4.13;;;24.70;81.90;;;;;;5072347;28;20532;-50
2023/05/28 10:40:02;;;;;;;4.55;3.67;;;24.30;81.10;;;;;;5071953;28;20169;-50
2023/05/28 10:42:27;;;;;;;4.68;3.72;;;24.50;78.90;;;;;;5071702;28;20185;-50
2023/05/28 10:45:10;;;;;;;7.38;3.72;;;24.90;77.20;;;;;;5072023;28;20166;-50
2023/05/28 10:47:40;;;;;;;3.70;3.25;;;;;;;;;;5071853;28;20174;-51
2023/05/28 10:50:09;;;;;;;6.43;3.65;;;24.60;80.50;;;;;;5072171;28;20165;-50
2023/05/28 10:52:35;;;;;;;5.85;3.17;;;24.70;77.60;;;;;;5072146;28;20170;-50
2023/05/28 10:55:08;;;;;;;8.20;3.92;;;24.80;77.70;;;;;;5072091;28;20174;-50
2023/05/28 10:57:44;;;;;;;9.15;4.70;;;24.90;77.20;;;;;;5072055;28;20195;-50
2023/05/28 11:00:14;;;;;;;11.07;3.95;;;24.90;81.70;;;;;;5070696;28;20197;-51
2023/05/28 11:02:44;;;;;;;7.25;4.20;;;24.90;77.20;;;;;;5071911;28;20235;-50
2023/05/28 11:05:10;;;;;;;8.18;3.78;;;25.00;76.60;;;;;;5071941;28;20503;-51
2023/05/28 11:07:42;;;;;;;6.22;3.78;;;25.20;78.30;;;;;;5071731;28;20221;-51
2023/05/28 11:10:14;;;;;;;7.47;4.07;;;25.20;78.20;;;;;;5072036;28;20173;-51
2023/05/28 11:12:41;;;;;;;8.90;4.28;;;25.40;77.10;;;;;;5071798;28;20166;-51
2023/05/28 11:15:08;;;;;;;7.20;4.03;;;25.30;79.40;;;;;;5071508;28;20696;-51
2023/05/28 11:17:44;;;;;;;9.15;4.00;;;25.10;79.70;;;;;;5071503;28;20169;-51
2023/05/28 11:20:26;;;;;;;8.25;3.60;;;25.00;79.50;;;;;;5071261;28;20240;-51
2023/05/28 11:22:52;;;;;;;4.97;2.90;;;25.00;80.40;;;;;;5071388;28;20162;-51
2023/05/28 11:25:20;;;;;;;6.15;3.90;;;25.30;80.10;;;;;;5071904;28;20646;-51
2023/05/28 11:27:47;;;;;;;4.88;3.40;;;25.40;80.50;;;;;;5072067;28;20180;-51
2023/05/28 11:30:17;;;;;;;3.63;2.92;;;25.60;82.10;;;;;;5071281;28;20538;-51
2023/05/28 11:32:45;;;;;;;7.95;3.58;;;25.50;80.30;;;;;;5071559;28;20172;-51
2023/05/28 11:35:12;;;;;;;6.68;3.88;;;;;;;;;;5071780;28;20542;-51
2023/05/28 11:37:39;;;;;;;6.22;3.75;;;25.50;77.70;;;;;;5071418;28;20169;-51
2023/05/28 11:40:10;;;;;;;4.65;3.47;;;25.80;76.70;;;;;;5071391;28;20622;-51
2023/05/28 11:42:37;;;;;;;7.57;4.05;;;25.70;77.30;;;;;;5071642;28;20193;-50
2023/05/28 11:45:03;;;;;;;6.60;3.95;;;25.60;77.00;;;;;;5071466;28;20161;-51
2023/05/28 11:47:32;;;;;;;5.60;4.00;;;25.60;74.70;;;;;;5071332;28;20528;-51
2023/05/28 11:49:58;;;;;;;6.13;3.67;;;25.80;73.40;;;;;;5071698;28;20169;-51
2023/05/28 11:52:25;;;;;;;5.38;3.28;;;25.40;71.20;;;;;;5071431;28;20188;-51
2023/05/28 11:54:56;;;;;;;6.78;3.40;;;25.40;72.30;;;;;;5071514;28;20218;-51
2023/05/28 11:57:26;;;;;;;5.72;3.45;;;25.10;68.90;;;;;;5071560;28;20260;-51
2023/05/28 12:00:15;;;;;;;4.85;3.42;;;25.50;71.40;;;;;;5071145;28;20153;-51
2023/05/28 12:02:48;;;;;;;8.23;3.83;;;26.00;72.00;;;;;;5071479;28;20188;-51
2023/05/28 12:05:16;;;;;;;4.95;3.58;;;26.00;74.80;;;;;;5071127;28;20512;-51
2023/05/28 12:07:47;;;;;;;5.43;3.20;;;26.10;74.60;;;;;;5071014;28;20217;-51
2023/05/28 12:10:14;;;;;;;5.47;3.97;;;26.10;75.60;;;;;;5071424;28;20575;-51
2023/05/28 12:12:43;;;;;;;6.72;4.00;;;26.10;73.20;;;;;;5071036;28;20658;-51
2023/05/28 12:15:09;;;;;;;6.20;3.83;;;26.00;71.30;;;;;;5071052;28;20649;-51
2023/05/28 12:17:39;;;;;;;5.05;3.60;;;26.00;67.40;;;;;;5071324;28;20170;-51
2023/05/28 12:20:13;;;;;;;5.25;3.53;;;26.20;68.60;;;;;;5071004;28;20574;-51
2023/05/28 12:22:42;;;;;;;6.57;4.05;;;25.90;66.70;;;;;;5071334;28;20253;-51
2023/05/28 12:25:08;;;;;;;5.10;3.65;;;25.90;69.80;;;;;;5069914;28;20169;-51
2023/05/28 12:27:35;;;;;;;4.90;4.22;;;26.40;69.60;;;;;;5071344;28;20173;-49
2023/05/28 12:30:01;;;;;;;6.57;4.07;;;26.60;69.50;;;;;;5071273;28;20170;-50
2023/05/28 12:32:26;;;;;;;5.57;3.10;;;26.30;70.40;;;;;;5070914;28;20541;-50
2023/05/28 12:34:56;;;;;;;8.02;3.70;;;26.40;70.30;;;;;;5070816;28;20199;-51
2023/05/28 12:37:22;;;;;;;4.05;3.10;;;26.30;71.10;;;;;;5071113;28;20267;-51
2023/05/28 12:39:47;;;;;;;6.35;3.70;;;26.50;72.50;;;;;;5071196;28;20223;-50
2023/05/28 12:42:13;;;;;;;6.10;3.38;;;26.30;71.50;;;;;;5071631;28;20616;-50
2023/05/28 12:44:39;;;;;;;4.93;3.60;;;26.50;71.90;;;;;;5074410;28;20667;-50
2023/05/28 12:47:05;;;;;;;7.13;3.35;;;26.40;71.40;;;;;;5074760;28;20297;-51
2023/05/28 12:49:32;;;;;;;5.32;3.83;;;26.30;71.50;;;;;;5074361;28;20169;-51
2023/05/28 12:51:57;;;;;;;5.85;3.60;;;26.50;71.20;;;;;;5074405;28;20188;-50
2023/05/28 12:54:23;;;;;;;5.28;3.20;;;26.60;70.20;;;;;;5074356;28;20166;-50